Terminal Aerodrome Forecast
Issued by NWS North Platte, NE

Home | Current Version | Previous Version | Text Only | Print | Product List | Glossary On
Versions: 1 2 3 4 5 6 7 8 9 10 11 12 13
000
FTUS43 KLBF 010527
TAFLBF
TAF
KLBF 010527Z 0106/0206 14007KT P6SM SCT070 SCT200
     FM011000 16005KT P6SM SCT070 SCT200
     FM011500 20008KT P6SM SCT200
     FM011800 18010G17KT P6SM SCT200
     FM020100 17006KT P6SM FEW250=

USA.gov is the U.S. government's official web portal to all federal, state and local government web resources and services.